Aeroporto :
LOGIN :

Iscrizione | Disclaimer

   EN    FR    IT 

 










Sommario :    VFR   VFR Marginale   IFR   IFR Intensivo   IFR Molto Intensivo
Visibilità : 
Base nubi : 
>= 8 km
>= 3000ft
5 / 8 km
1000 / 3000 ft
1500m / 5 km
500 / 1000 ft
800 / 1500m
200 / 500 ft
< 800m
< 200 ft
Simboli :   Temporali  Nebbia  Neve Forte  Precipitazioni Forti  Vento > 20 kt
SIGMETs :   Varie  Temporali  Ghiacco  Turbolenza  Onda orograficha  Ceneri Vulcaniche






- Altitudine del aeroporto : 84 ft


LFBC - Cazaux

ULTIMO METAR :
  • 022000Z AUTO 34008KT CAVOK 10/04 Q1016 NOSIG

METARs OBSOLETI :
  • 021930Z AUTO 34008KT CAVOK 10/05 Q1016 NOSIG
  • 021900Z AUTO 33008KT CAVOK 10/05 Q1016 NOSIG
  • 021830Z AUTO 33008KT CAVOK 11/05 Q1015 NOSIG
  • 021800Z AUTO 33008KT CAVOK 13/05 Q1015 NOSIG
  • 021730Z AUTO 34008KT CAVOK 14/04 Q1015 NOSIG
  • 021700Z AUTO 32007KT 280V360 CAVOK 15/02 Q1015 NOSIG

TAF TAF LFBC
Valido dal 02 a 15 ore il 03 a 15 ore UTC


021400Z 0215/0315 32008KT 9999 FEW040
TEMPO 0215/0221 32012KT



MetMap, La meteo Aeronautica in un colpo d'occhio ! - Copyright ORBIFLY Dicembre 2007 - Disclaimer

ORBIFLY MET'MAP TEAM :

Programmazione e sviluppo : Alexandra Zaïnal
Concezione : Baudouin d'Aumeries
Aiuto per la programmazione : Marc-Olivier Méhu
Supporto tecnico e logistico : Manuel Goepfert
Aiuto per la traduzione : Arnaldo La Scala

Contatto : metmap@orbifly.com




FONTI E CREDITI :

   NOAA